Time;durP1;ratioP1;P1;durP2;ratioP2;P2;SDS_P1;SDS_P2;PMS_P1;PMS_P2;Temp;Humidity;BMP_temperature;BMP_pressure;BME280_temperature;BME280_humidity;BME280_pressure;Samples;Min_cycle;Max_cycle;Signal;HPM_P1;HPM_P2
2022/05/06 00:02:23;;;;;;;4.20;2.28;;;13.40;99.90;;;;;;5023420;28;20048;-66
2022/05/06 00:04:49;;;;;;;1.73;1.52;;;13.40;99.90;;;;;;5027971;28;20041;-66
2022/05/06 00:07:15;;;;;;;0.45;0.45;;;13.40;99.90;;;;;;5026640;28;20179;-66
2022/05/06 00:09:44;;;;;;;0.70;0.70;;;13.40;99.90;;;;;;5028368;28;20045;-67
2022/05/06 00:12:12;;;;;;;2.25;1.02;;;13.40;99.90;;;;;;5013427;28;20053;-67
2022/05/06 00:14:38;;;;;;;3.72;1.50;;;13.50;99.90;;;;;;5020828;28;20416;-66
2022/05/06 00:17:05;;;;;;;2.05;1.85;;;13.50;99.90;;;;;;5028311;28;20091;-67
2022/05/06 00:19:31;;;;;;;0.75;0.75;;;13.50;99.90;;;;;;5015417;28;20034;-66
2022/05/06 00:21:56;;;;;;;1.38;1.27;;;13.60;99.90;;;;;;5009309;28;20042;-67
2022/05/06 00:24:22;;;;;;;4.10;2.15;;;13.60;99.90;;;;;;5018098;28;20528;-67
2022/05/06 00:26:47;;;;;;;2.45;1.00;;;13.50;99.90;;;;;;5017916;28;20084;-66
2022/05/06 00:29:13;;;;;;;1.80;0.95;;;13.40;99.90;;;;;;5016407;28;20104;-67
2022/05/06 00:31:39;;;;;;;1.45;0.93;;;13.40;99.90;;;;;;5025312;28;20053;-66
2022/05/06 00:34:05;;;;;;;0.10;0.10;;;13.40;99.90;;;;;;5026360;28;20042;-66
2022/05/06 00:36:30;;;;;;;3.55;1.00;;;13.40;99.90;;;;;;5026122;28;20034;-66
2022/05/06 00:38:56;;;;;;;0.20;0.20;;;13.50;99.90;;;;;;5027638;28;20130;-66
2022/05/06 00:41:22;;;;;;;0.98;0.88;;;13.40;99.90;;;;;;5024311;28;20130;-66
2022/05/06 00:43:47;;;;;;;0.75;0.75;;;13.30;99.90;;;;;;5027637;28;20052;-66
2022/05/06 00:46:15;;;;;;;0.43;0.43;;;13.40;99.90;;;;;;5014864;28;20048;-66
2022/05/06 00:48:48;;;;;;;0.65;0.65;;;13.40;99.90;;;;;;5009560;28;20034;-67
2022/05/06 00:51:14;;;;;;;0.80;0.63;;;13.40;99.90;;;;;;5017959;28;20037;-67
2022/05/06 00:53:43;;;;;;;1.50;1.40;;;13.30;99.90;;;;;;5020233;28;20053;-66
2022/05/06 00:56:10;;;;;;;1.10;1.00;;;13.30;99.90;;;;;;5026694;28;20048;-66
2022/05/06 00:58:36;;;;;;;2.17;1.85;;;13.20;99.90;;;;;;5013140;28;20394;-66
2022/05/06 01:01:03;;;;;;;0.93;0.85;;;13.30;99.90;;;;;;5011384;28;20056;-67
2022/05/06 01:03:30;;;;;;;2.92;1.85;;;13.30;99.90;;;;;;5008466;28;20088;-66
2022/05/06 01:05:55;;;;;;;1.15;1.02;;;13.30;99.90;;;;;;5022817;28;20046;-66
2022/05/06 01:08:21;;;;;;;0.47;0.47;;;13.20;99.90;;;;;;5020393;28;20046;-66
2022/05/06 01:10:48;;;;;;;0.73;0.73;;;13.20;99.90;;;;;;5015008;28;20114;-67
2022/05/06 01:13:13;;;;;;;4.55;1.23;;;13.30;99.90;;;;;;5024412;28;20088;-67
2022/05/06 01:15:40;;;;;;;4.57;1.17;;;13.20;99.90;;;;;;5010146;28;20407;-66
2022/05/06 01:18:10;;;;;;;12.43;1.60;;;13.20;99.90;;;;;;5021037;28;20038;-67
2022/05/06 01:20:42;;;;;;;0.85;0.85;;;13.10;99.90;;;;;;5007759;28;20045;-67
2022/05/06 01:23:07;;;;;;;1.17;1.15;;;13.00;99.90;;;;;;5005815;28;20461;-66
2022/05/06 01:25:33;;;;;;;0.68;0.63;;;13.00;99.90;;;;;;5011481;28;20120;-66
2022/05/06 01:28:03;;;;;;;0.40;0.40;;;13.00;99.90;;;;;;5025332;28;20255;-67
2022/05/06 01:30:42;;;;;;;2.83;2.63;;;13.10;99.90;;;;;;5006409;28;20135;-66
2022/05/06 01:33:09;;;;;;;0.55;0.55;;;13.00;99.90;;;;;;5008259;28;20108;-66
2022/05/06 01:35:59;;;;;;;0.40;0.40;;;12.90;99.90;;;;;;5010820;28;20120;-66
2022/05/06 01:38:40;;;;;;;0.75;0.75;;;12.90;99.90;;;;;;5009916;28;20504;-66
2022/05/06 01:41:09;;;;;;;2.83;0.93;;;12.90;99.90;;;;;;5012344;28;20057;-66
2022/05/06 01:43:42;;;;;;;2.13;1.85;;;12.90;99.90;;;;;;5016615;28;20088;-66
2022/05/06 01:46:09;;;;;;;1.45;1.35;;;12.80;99.90;;;;;;5020519;28;20044;-67
2022/05/06 01:48:36;;;;;;;2.15;1.08;;;12.80;99.90;;;;;;5015733;28;20045;-67
2022/05/06 01:51:02;;;;;;;2.15;1.40;;;12.80;99.90;;;;;;5030794;28;20117;-67
2022/05/06 01:53:28;;;;;;;8.30;2.08;;;12.70;99.90;;;;;;5013945;28;20119;-67
2022/05/06 01:55:53;;;;;;;1.17;1.17;;;12.70;99.90;;;;;;5016823;28;20477;-67
2022/05/06 01:58:20;;;;;;;0.70;0.70;;;12.60;99.90;;;;;;5030376;28;20057;-67
2022/05/06 02:00:46;;;;;;;0.75;0.65;;;12.70;99.90;;;;;;5027369;28;20417;-66
2022/05/06 02:05:16;;;;;;;1.27;0.95;;;12.60;99.90;;;;;;5014104;28;20037;-66
2022/05/06 02:05:57;;;;;;;0.75;0.75;;;12.60;99.90;;;;;;5019070;28;20045;-66
2022/05/06 02:08:23;;;;;;;0.82;0.80;;;12.70;99.90;;;;;;5011698;28;20111;-66
2022/05/06 02:10:48;;;;;;;1.30;1.25;;;12.60;99.90;;;;;;5016185;28;20095;-66
2022/05/06 02:13:14;;;;;;;0.28;0.20;;;12.60;99.90;;;;;;5025751;28;20034;-66
2022/05/06 02:15:40;;;;;;;0.25;0.25;;;12.50;99.90;;;;;;5015150;28;20069;-66
2022/05/06 02:18:09;;;;;;;1.30;1.23;;;12.60;99.90;;;;;;5026677;28;20187;-67
2022/05/06 02:20:35;;;;;;;1.58;0.75;;;12.60;99.90;;;;;;5030796;28;20160;-66
2022/05/06 02:23:01;;;;;;;0.73;0.73;;;12.50;99.90;;;;;;5019836;28;20154;-66
2022/05/06 02:25:26;;;;;;;1.70;1.17;;;12.50;99.90;;;;;;5016198;28;20504;-66
2022/05/06 02:27:52;;;;;;;2.28;1.55;;;12.40;99.90;;;;;;5031211;28;20871;-66
2022/05/06 02:33:14;;;;;;;0.35;0.35;;;12.40;99.90;;;;;;5025511;28;20045;-66
2022/05/06 02:35:43;;;;;;;0.10;0.10;;;12.30;99.90;;;;;;5029946;28;20110;-66
2022/05/06 02:38:10;;;;;;;0.47;0.43;;;12.30;99.90;;;;;;5030121;28;20503;-67
2022/05/06 02:40:37;;;;;;;3.30;1.38;;;12.40;99.90;;;;;;5014315;28;20048;-66
2022/05/06 02:43:04;;;;;;;1.25;1.17;;;12.40;99.90;;;;;;5017977;28;20037;-66
2022/05/06 02:45:30;;;;;;;0.82;0.82;;;12.40;99.90;;;;;;5029204;28;20057;-66
2022/05/06 02:47:57;;;;;;;0.40;0.40;;;12.40;99.90;;;;;;5025722;28;20042;-66
2022/05/06 02:50:23;;;;;;;0.28;0.28;;;12.30;99.90;;;;;;5009502;28;20501;-66
2022/05/06 02:52:49;;;;;;;1.85;0.80;;;12.40;99.90;;;;;;5020454;28;20050;-66
2022/05/06 02:55:14;;;;;;;0.38;0.38;;;12.20;99.90;;;;;;5013964;28;20390;-66
2022/05/06 02:57:40;;;;;;;0.82;0.60;;;12.20;99.90;;;;;;5028627;28;20054;-66
2022/05/06 03:00:06;;;;;;;0.10;0.10;;;12.30;99.90;;;;;;5025126;28;20590;-66
2022/05/06 03:02:32;;;;;;;0.65;0.65;;;12.20;99.90;;;;;;5010620;28;20054;-66
2022/05/06 03:04:58;;;;;;;5.18;1.58;;;12.20;99.90;;;;;;5009875;28;20043;-66
2022/05/06 03:07:23;;;;;;;0.52;0.52;;;12.20;99.90;;;;;;5016572;28;20053;-66
2022/05/06 03:09:49;;;;;;;2.40;1.65;;;12.20;99.90;;;;;;5011199;28;20046;-66
2022/05/06 03:12:17;;;;;;;0.45;0.45;;;12.20;99.90;;;;;;5030189;28;20842;-66
2022/05/06 03:14:43;;;;;;;0.47;0.47;;;12.10;99.90;;;;;;5016425;28;20060;-66
2022/05/06 03:17:09;;;;;;;0.10;0.10;;;12.10;99.90;;;;;;5026454;28;20049;-66
2022/05/06 03:19:35;;;;;;;0.40;0.40;;;12.10;99.90;;;;;;5029775;28;20073;-66
2022/05/06 03:22:00;;;;;;;0.32;0.32;;;12.00;99.90;;;;;;5029050;28;20041;-66
2022/05/06 03:24:27;;;;;;;0.47;0.47;;;11.90;99.90;;;;;;5015038;28;20038;-66
2022/05/06 03:26:53;;;;;;;0.10;0.10;;;11.90;99.90;;;;;;5025614;28;20045;-66
2022/05/06 03:29:18;;;;;;;0.13;0.13;;;11.90;99.90;;;;;;5018293;28;20040;-66
2022/05/06 03:31:44;;;;;;;0.80;0.52;;;11.80;99.90;;;;;;5025652;28;20413;-66
2022/05/06 03:34:11;;;;;;;0.10;0.10;;;11.90;99.90;;;;;;5020539;28;20050;-66
2022/05/06 03:36:37;;;;;;;0.30;0.30;;;11.90;99.90;;;;;;5011054;28;20045;-66
2022/05/06 03:39:03;;;;;;;0.55;0.52;;;11.80;99.90;;;;;;5020678;28;20044;-66
2022/05/06 03:41:29;;;;;;;0.10;0.10;;;11.80;99.90;;;;;;5028167;28;20049;-66
2022/05/06 03:43:54;;;;;;;0.10;0.10;;;11.80;99.90;;;;;;5018704;28;20505;-66
2022/05/06 03:46:20;;;;;;;0.20;0.20;;;11.80;99.90;;;;;;5020507;28;20059;-66
2022/05/06 03:48:46;;;;;;;0.20;0.20;;;11.70;99.90;;;;;;5015156;28;20045;-66
2022/05/06 03:51:21;;;;;;;0.30;0.30;;;11.80;99.90;;;;;;5017475;28;20452;-66
2022/05/06 03:53:51;;;;;;;0.20;0.20;;;11.80;99.90;;;;;;5021118;28;20061;-66
2022/05/06 03:56:18;;;;;;;0.10;0.10;;;11.80;99.90;;;;;;5010775;28;20054;-66
2022/05/06 03:58:44;;;;;;;0.10;0.10;;;11.70;99.90;;;;;;5014076;28;20124;-66
2022/05/06 04:01:10;;;;;;;0.13;0.13;;;11.70;99.90;;;;;;5027941;28;20064;-66
2022/05/06 04:03:36;;;;;;;0.10;0.10;;;11.80;99.90;;;;;;5015291;28;20046;-66
2022/05/06 04:06:02;;;;;;;0.25;0.25;;;11.80;99.90;;;;;;5017494;28;20048;-65
2022/05/06 04:08:27;;;;;;;0.10;0.10;;;11.80;99.90;;;;;;5017136;28;20124;-66
2022/05/06 04:10:53;;;;;;;0.30;0.30;;;11.80;99.90;;;;;;5008848;28;20042;-65
2022/05/06 04:13:19;;;;;;;0.28;0.28;;;11.80;99.90;;;;;;5008999;28;20046;-66
2022/05/06 04:15:48;;;;;;;0.30;0.30;;;11.80;99.90;;;;;;5026871;28;20487;-66
2022/05/06 04:18:14;;;;;;;0.30;0.30;;;11.80;99.90;;;;;;5027202;28;20056;-66
2022/05/06 04:23:30;;;;;;;0.08;0.08;;;11.80;99.90;;;;;;5025877;28;20053;-65
2022/05/06 04:25:58;;;;;;;0.30;0.30;;;11.80;99.90;;;;;;5024799;28;20053;-65
2022/05/06 04:28:25;;;;;;;0.50;0.50;;;11.80;99.90;;;;;;5021888;28;20059;-65
2022/05/06 04:30:51;;;;;;;0.10;0.10;;;11.70;99.90;;;;;;5013877;28;20470;-65
2022/05/06 04:33:20;;;;;;;0.90;0.55;;;11.70;99.90;;;;;;5008797;28;20123;-66
2022/05/06 04:35:47;;;;;;;1.02;0.98;;;11.70;99.90;;;;;;5013421;28;20041;-66
2022/05/06 04:38:12;;;;;;;0.10;0.10;;;11.70;99.90;;;;;;5020935;28;20096;-66
2022/05/06 04:40:40;;;;;;;0.00;0.00;;;11.70;99.90;;;;;;5010296;28;20294;-66
2022/05/06 04:43:06;;;;;;;0.15;0.15;;;11.70;99.90;;;;;;5027709;28;20068;-66
2022/05/06 04:45:36;;;;;;;0.10;0.10;;;11.70;99.90;;;;;;5027040;28;21518;-66
2022/05/06 04:48:02;;;;;;;0.10;0.10;;;11.70;99.90;;;;;;5019390;28;20061;-66
2022/05/06 04:50:27;;;;;;;0.10;0.10;;;11.80;99.90;;;;;;5008499;28;20474;-65
2022/05/06 04:52:53;;;;;;;0.32;0.32;;;11.80;99.90;;;;;;5015337;28;20061;-65
2022/05/06 04:55:19;;;;;;;0.10;0.10;;;11.80;99.90;;;;;;5026054;28;20051;-65
2022/05/06 04:57:44;;;;;;;0.00;0.00;;;11.80;99.90;;;;;;5009387;28;20049;-66
2022/05/06 05:00:10;;;;;;;0.08;0.08;;;11.80;99.90;;;;;;5007086;28;20041;-66
2022/05/06 05:02:37;;;;;;;0.57;0.57;;;11.80;99.90;;;;;;5006735;28;20041;-66
2022/05/06 05:05:03;;;;;;;0.10;0.10;;;11.80;99.90;;;;;;5008552;28;20112;-66
2022/05/06 05:07:29;;;;;;;0.20;0.20;;;11.80;99.90;;;;;;5016326;28;20034;-66
2022/05/06 05:09:54;;;;;;;0.40;0.40;;;11.80;99.90;;;;;;5011876;28;20484;-66
2022/05/06 05:12:20;;;;;;;0.10;0.10;;;11.80;99.90;;;;;;5027307;28;20459;-66
2022/05/06 05:14:45;;;;;;;0.10;0.10;;;11.90;99.90;;;;;;5025138;28;20049;-66
2022/05/06 05:17:11;;;;;;;0.00;0.00;;;11.90;99.90;;;;;;5012711;28;20085;-66
2022/05/06 05:19:37;;;;;;;0.40;0.40;;;12.00;99.90;;;;;;5008128;28;20490;-66
2022/05/06 05:22:04;;;;;;;0.30;0.30;;;11.80;99.90;;;;;;5020909;28;20574;-66
2022/05/06 05:24:30;;;;;;;0.15;0.13;;;11.90;99.90;;;;;;5011875;28;20433;-66
2022/05/06 05:26:57;;;;;;;0.35;0.35;;;11.90;99.90;;;;;;5019649;28;20046;-66
2022/05/06 05:29:23;;;;;;;0.10;0.10;;;11.90;99.90;;;;;;5023921;28;20045;-66
2022/05/06 05:31:49;;;;;;;0.20;0.20;;;12.00;99.90;;;;;;5008345;28;20053;-66
2022/05/06 05:34:15;;;;;;;0.00;0.00;;;12.00;99.90;;;;;;5010797;28;20092;-66
2022/05/06 05:36:40;;;;;;;0.65;0.65;;;12.00;99.90;;;;;;5016917;28;20069;-66
2022/05/06 05:39:06;;;;;;;0.10;0.10;;;12.10;99.90;;;;;;5021704;28;20107;-66
2022/05/06 05:41:33;;;;;;;0.10;0.10;;;12.10;99.90;;;;;;5007582;28;20125;-66
2022/05/06 05:49:28;;;;;;;0.15;0.15;;;12.00;99.90;;;;;;5024602;28;20207;-66
2022/05/06 05:51:53;;;;;;;0.30;0.30;;;11.90;99.90;;;;;;5027058;28;20132;-66
2022/05/06 05:54:19;;;;;;;0.10;0.10;;;12.00;99.90;;;;;;5017195;28;20084;-66
2022/05/06 05:56:45;;;;;;;0.80;0.75;;;11.90;99.90;;;;;;5017626;28;20041;-66
2022/05/06 05:59:10;;;;;;;0.20;0.20;;;11.90;99.90;;;;;;5022885;28;20091;-66
2022/05/06 06:01:36;;;;;;;0.10;0.10;;;12.00;99.90;;;;;;5008833;28;20096;-66
2022/05/06 06:04:02;;;;;;;0.20;0.20;;;12.00;99.90;;;;;;5017344;28;20046;-66
2022/05/06 06:06:28;;;;;;;0.05;0.05;;;12.00;99.90;;;;;;5022198;28;20100;-66
2022/05/06 06:08:54;;;;;;;0.10;0.10;;;12.10;99.90;;;;;;5008452;28;20378;-66
2022/05/06 06:11:20;;;;;;;0.05;0.05;;;12.10;99.90;;;;;;5017403;28;20586;-66
2022/05/06 06:13:46;;;;;;;1.20;0.43;;;12.10;99.90;;;;;;5018105;28;20045;-66
2022/05/06 06:16:12;;;;;;;0.22;0.22;;;12.20;99.90;;;;;;5011439;28;20050;-66
2022/05/06 06:18:37;;;;;;;0.80;0.80;;;12.20;99.90;;;;;;5027088;28;20038;-66
2022/05/06 06:21:03;;;;;;;0.10;0.10;;;12.10;99.90;;;;;;5016846;28;20145;-66
2022/05/06 06:23:32;;;;;;;0.32;0.32;;;12.10;99.90;;;;;;5012458;28;20034;-66
2022/05/06 06:25:58;;;;;;;0.10;0.10;;;12.20;99.90;;;;;;5028021;28;20037;-66
2022/05/06 06:28:23;;;;;;;0.03;0.03;;;12.20;99.90;;;;;;5031030;28;20041;-66
2022/05/06 06:30:49;;;;;;;0.10;0.10;;;12.20;99.90;;;;;;5010098;28;20506;-66
2022/05/06 06:33:15;;;;;;;0.10;0.10;;;12.20;99.90;;;;;;5012612;28;20084;-66
2022/05/06 06:35:41;;;;;;;0.20;0.20;;;12.20;99.90;;;;;;5029373;28;20048;-66
2022/05/06 06:38:07;;;;;;;0.88;0.77;;;12.20;99.90;;;;;;5028779;28;20041;-66
2022/05/06 06:40:33;;;;;;;0.40;0.38;;;12.30;99.90;;;;;;5024835;28;20095;-66
2022/05/06 06:43:03;;;;;;;0.10;0.10;;;12.30;99.90;;;;;;5017089;28;20042;-66
2022/05/06 06:45:30;;;;;;;0.75;0.40;;;12.40;99.90;;;;;;5015591;28;20090;-66
2022/05/06 06:47:57;;;;;;;2.42;1.08;;;12.30;99.90;;;;;;5025969;28;20045;-66
2022/05/06 06:50:24;;;;;;;0.10;0.10;;;12.40;99.90;;;;;;5016889;28;20038;-66
2022/05/06 06:52:50;;;;;;;1.00;0.75;;;12.50;99.90;;;;;;5028276;28;20061;-66
2022/05/06 06:55:16;;;;;;;0.10;0.10;;;12.60;99.90;;;;;;5022175;28;20054;-66
2022/05/06 06:57:41;;;;;;;0.32;0.32;;;12.60;99.90;;;;;;5026380;28;20056;-66
2022/05/06 07:00:08;;;;;;;0.10;0.10;;;12.70;99.90;;;;;;5028380;28;20144;-66
2022/05/06 07:02:36;;;;;;;0.10;0.10;;;12.70;99.90;;;;;;5020921;28;20026;-66
2022/05/06 07:05:02;;;;;;;0.00;0.00;;;12.70;99.90;;;;;;5010384;28;20053;-66
2022/05/06 07:12:57;;;;;;;0.10;0.10;;;12.80;99.90;;;;;;5016181;28;20062;-66
2022/05/06 07:15:23;;;;;;;0.30;0.30;;;12.90;99.90;;;;;;5029858;28;20055;-66
2022/05/06 07:17:49;;;;;;;0.22;0.22;;;13.00;99.90;;;;;;5024758;28;20492;-66
2022/05/06 07:20:14;;;;;;;0.22;0.22;;;13.00;99.90;;;;;;5017022;28;20046;-66
2022/05/06 07:22:40;;;;;;;0.10;0.10;;;13.20;99.90;;;;;;5009195;28;20111;-66
2022/05/06 07:25:06;;;;;;;0.05;0.03;;;13.20;99.90;;;;;;5010268;28;20397;-66
2022/05/06 07:27:35;;;;;;;0.17;0.17;;;13.20;99.90;;;;;;5020562;28;20485;-65
2022/05/06 07:30:04;;;;;;;0.20;0.20;;;13.20;99.90;;;;;;5011387;28;20505;-66
2022/05/06 07:32:30;;;;;;;0.10;0.10;;;13.30;99.90;;;;;;5012635;28;20461;-64
2022/05/06 07:34:56;;;;;;;0.00;0.00;;;13.40;99.90;;;;;;5016787;28;20050;-64
2022/05/06 07:37:22;;;;;;;0.20;0.20;;;13.50;99.90;;;;;;5023749;28;20053;-65
2022/05/06 07:39:47;;;;;;;0.20;0.20;;;13.40;99.90;;;;;;5018768;28;20095;-65
2022/05/06 07:42:13;;;;;;;0.38;0.30;;;13.40;99.90;;;;;;5013787;28;20143;-65
2022/05/06 07:44:39;;;;;;;1.35;0.32;;;13.50;99.90;;;;;;5017521;28;20037;-65
2022/05/06 07:47:04;;;;;;;0.25;0.25;;;13.60;99.90;;;;;;5017205;28;20080;-65
2022/05/06 07:49:30;;;;;;;0.10;0.10;;;13.50;99.90;;;;;;5017685;28;20389;-65
2022/05/06 07:51:56;;;;;;;0.10;0.10;;;13.60;99.90;;;;;;5024113;28;20046;-65
2022/05/06 07:54:21;;;;;;;0.10;0.10;;;13.60;99.90;;;;;;5027049;28;20057;-65
2022/05/06 07:56:47;;;;;;;0.10;0.10;;;13.70;99.90;;;;;;5020675;28;20041;-65
2022/05/06 07:59:12;;;;;;;0.10;0.10;;;13.70;99.90;;;;;;5009493;28;20104;-65
2022/05/06 08:04:32;;;;;;;0.10;0.10;;;13.80;99.90;;;;;;5018504;28;20049;-65
2022/05/06 08:06:59;;;;;;;0.35;0.35;;;13.90;99.90;;;;;;5019509;28;20060;-65
2022/05/06 08:09:25;;;;;;;0.17;0.17;;;14.00;99.90;;;;;;5024488;28;20078;-65
2022/05/06 08:11:51;;;;;;;0.15;0.15;;;13.90;99.90;;;;;;5017664;28;20519;-65
2022/05/06 08:14:18;;;;;;;0.00;0.00;;;14.00;99.90;;;;;;5013997;28;20049;-65
2022/05/06 08:16:44;;;;;;;0.10;0.10;;;14.10;99.90;;;;;;5011333;28;20045;-65
2022/05/06 08:19:10;;;;;;;0.57;0.57;;;14.10;99.90;;;;;;5017133;28;20049;-65
2022/05/06 08:21:36;;;;;;;1.10;0.57;;;14.30;99.90;;;;;;5011384;28;20393;-65
2022/05/06 08:24:02;;;;;;;0.20;0.20;;;14.40;99.90;;;;;;5026896;28;20057;-65
2022/05/06 08:26:27;;;;;;;0.20;0.20;;;14.30;99.90;;;;;;5025052;28;20042;-65
2022/05/06 08:28:53;;;;;;;0.10;0.10;;;14.30;99.90;;;;;;5022299;28;20357;-64
2022/05/06 08:31:20;;;;;;;0.10;0.10;;;14.50;99.90;;;;;;5027332;28;20041;-64
2022/05/06 08:33:45;;;;;;;0.10;0.10;;;14.60;99.90;;;;;;5028019;28;20109;-64
2022/05/06 08:36:11;;;;;;;0.40;0.40;;;14.60;99.90;;;;;;5019372;28;20501;-64
2022/05/06 08:38:36;;;;;;;0.25;0.25;;;14.80;99.90;;;;;;5014302;28;20053;-64
2022/05/06 08:41:03;;;;;;;0.10;0.10;;;14.80;99.90;;;;;;5010695;28;20081;-64
2022/05/06 08:43:28;;;;;;;0.55;0.45;;;14.90;99.90;;;;;;5026363;28;20044;-64
2022/05/06 08:51:34;;;;;;;0.45;0.45;;;15.30;99.90;;;;;;5015814;28;20508;-64
2022/05/06 08:54:01;;;;;;;0.08;0.08;;;15.30;99.90;;;;;;5022957;28;20058;-64
2022/05/06 08:56:27;;;;;;;0.52;0.30;;;15.40;99.90;;;;;;5018234;28;20045;-64
2022/05/06 08:58:54;;;;;;;0.00;0.00;;;15.50;99.90;;;;;;5027662;28;20049;-64
2022/05/06 09:01:21;;;;;;;0.85;0.85;;;15.60;99.90;;;;;;5018415;28;20172;-64
2022/05/06 09:03:48;;;;;;;0.10;0.10;;;15.70;99.90;;;;;;5024011;28;20095;-64
2022/05/06 09:06:27;;;;;;;0.10;0.10;;;16.00;99.90;;;;;;5012700;28;20041;-64
2022/05/06 09:08:56;;;;;;;0.10;0.10;;;16.40;99.90;;;;;;5020287;28;20080;-64
2022/05/06 09:12:40;;;;;;;1.55;0.70;;;16.60;99.90;;;;;;5013196;28;20046;-64
2022/05/06 09:14:14;;;;;;;0.10;0.10;;;16.70;99.90;;;;;;5021121;28;20107;-65
2022/05/06 09:16:39;;;;;;;0.28;0.28;;;17.10;99.90;;;;;;5023480;28;20048;-64
2022/05/06 09:19:17;;;;;;;0.28;0.28;;;17.40;99.90;;;;;;5019230;28;20041;-65
2022/05/06 09:22:09;;;;;;;0.05;0.05;;;17.90;99.90;;;;;;5022404;28;20058;-64
2022/05/06 09:24:37;;;;;;;0.20;0.20;;;18.40;99.90;;;;;;5016064;28;20498;-64
2022/05/06 09:27:08;;;;;;;1.85;0.47;;;18.90;99.90;;;;;;5014201;28;20080;-65
2022/05/06 09:29:43;;;;;;;0.17;0.17;;;19.10;99.90;;;;;;5023024;28;20041;-65
2022/05/06 09:32:19;;;;;;;2.05;0.63;;;19.00;99.90;;;;;;5015513;28;20078;-64
2022/05/06 09:35:09;;;;;;;0.30;0.30;;;18.70;99.90;;;;;;5014537;28;20041;-64
2022/05/06 09:37:39;;;;;;;0.20;0.17;;;18.80;99.90;;;;;;5016677;28;20060;-64
2022/05/06 09:40:07;;;;;;;0.00;0.00;;;18.90;99.90;;;;;;5015570;28;20471;-64
2022/05/06 09:42:33;;;;;;;0.38;0.38;;;19.20;99.90;;;;;;5024793;28;20120;-65
2022/05/06 09:45:00;;;;;;;0.10;0.10;;;19.40;99.90;;;;;;5020270;28;20053;-65
2022/05/06 09:47:26;;;;;;;0.08;0.08;;;19.60;99.90;;;;;;5022322;28;20125;-64
2022/05/06 09:49:53;;;;;;;1.65;1.00;;;19.10;99.90;;;;;;5028243;28;20128;-64
2022/05/06 09:52:19;;;;;;;0.03;0.03;;;18.80;99.90;;;;;;5019111;28;20143;-64
2022/05/06 09:54:46;;;;;;;0.32;0.32;;;18.70;99.90;;;;;;5005969;28;20081;-64
2022/05/06 09:57:14;;;;;;;0.15;0.15;;;18.50;99.90;;;;;;5022862;28;20578;-64
2022/05/06 09:59:39;;;;;;;0.47;0.20;;;18.40;99.90;;;;;;5020926;28;20107;-64
2022/05/06 10:02:08;;;;;;;0.28;0.28;;;18.30;99.90;;;;;;5028305;28;20432;-64
2022/05/06 10:04:35;;;;;;;0.20;0.20;;;18.10;99.90;;;;;;5031201;28;20041;-65
2022/05/06 10:07:02;;;;;;;0.20;0.20;;;18.00;99.90;;;;;;5021366;28;20064;-65
2022/05/06 10:09:35;;;;;;;0.15;0.15;;;18.20;99.90;;;;;;5025823;28;20041;-64
2022/05/06 10:12:03;;;;;;;0.30;0.22;;;18.40;99.90;;;;;;5031668;28;20042;-64
2022/05/06 10:14:30;;;;;;;1.02;0.50;;;18.90;99.90;;;;;;5026664;28;20057;-64
2022/05/06 10:16:55;;;;;;;0.00;0.00;;;19.20;99.90;;;;;;5012222;28;20052;-64
2022/05/06 10:19:29;;;;;;;0.20;0.20;;;19.50;99.90;;;;;;5019195;28;20050;-64
2022/05/06 10:21:57;;;;;;;;;;;19.50;99.90;;;;;;5031153;28;20041;-64
2022/05/06 10:24:23;;;;;;;0.93;0.80;;;19.40;99.90;;;;;;5030119;28;19932;-64
2022/05/06 10:26:50;;;;;;;0.00;0.00;;;19.40;99.90;;;;;;5018432;28;20389;-64
2022/05/06 10:32:52;;;;;;;0.08;0.05;;;20.10;99.90;;;;;;5022183;28;20061;-64
2022/05/06 10:35:19;;;;;;;0.10;0.10;;;20.10;99.90;;;;;;5025141;28;20088;-64
2022/05/06 10:37:45;;;;;;;0.10;0.10;;;20.00;99.90;;;;;;5017996;28;20046;-64
2022/05/06 10:40:23;;;;;;;0.00;0.00;;;19.80;99.90;;;;;;5022070;28;20184;-64
2022/05/06 10:42:49;;;;;;;0.00;0.00;;;19.50;99.90;;;;;;5023219;28;20485;-64
2022/05/06 10:45:25;;;;;;;0.20;0.20;;;19.20;99.90;;;;;;5029216;28;20090;-64
2022/05/06 10:47:51;;;;;;;0.47;0.43;;;19.30;99.90;;;;;;5020916;28;20405;-64
2022/05/06 10:50:23;;;;;;;0.10;0.10;;;19.30;99.90;;;;;;5028284;28;20065;-65
2022/05/06 10:52:49;;;;;;;0.10;0.10;;;19.50;99.90;;;;;;5019135;28;20053;-64
2022/05/06 10:55:17;;;;;;;0.25;0.25;;;19.60;99.90;;;;;;5021989;28;20045;-64
2022/05/06 10:57:50;;;;;;;0.20;0.20;;;19.60;99.90;;;;;;5024381;28;20046;-64
2022/05/06 11:00:16;;;;;;;0.00;0.00;;;19.70;99.90;;;;;;5023304;28;20042;-64
2022/05/06 11:02:42;;;;;;;0.00;0.00;;;19.60;99.90;;;;;;5026102;28;20037;-65
2022/05/06 11:05:10;;;;;;;0.32;0.20;;;19.80;99.90;;;;;;5030011;28;20103;-65
2022/05/06 11:07:41;;;;;;;0.05;0.05;;;19.70;99.90;;;;;;5021814;28;20048;-65
2022/05/06 11:10:11;;;;;;;0.30;0.30;;;19.50;99.90;;;;;;5021387;28;20037;-65
2022/05/06 11:12:39;;;;;;;0.63;0.60;;;19.50;99.90;;;;;;5020209;28;20828;-65
2022/05/06 11:15:07;;;;;;;0.55;0.55;;;19.60;99.90;;;;;;5016243;28;20498;-65
2022/05/06 11:17:33;;;;;;;0.00;0.00;;;19.60;99.90;;;;;;5018928;28;20045;-65
2022/05/06 11:20:05;;;;;;;0.08;0.08;;;19.50;99.90;;;;;;5022808;28;20405;-65
2022/05/06 11:22:33;;;;;;;1.25;0.80;;;19.70;99.90;;;;;;5020039;28;20056;-65
2022/05/06 11:25:00;;;;;;;0.03;0.03;;;19.70;99.90;;;;;;5019707;28;20095;-66
2022/05/06 11:27:26;;;;;;;1.27;0.90;;;19.40;99.90;;;;;;5018221;28;20042;-66
2022/05/06 11:29:57;;;;;;;1.45;0.80;;;19.60;99.90;;;;;;5019147;28;20042;-66
2022/05/06 11:32:23;;;;;;;0.17;0.17;;;19.50;99.90;;;;;;5018267;28;20038;-66
2022/05/06 11:34:54;;;;;;;0.15;0.15;;;19.80;99.90;;;;;;5010780;28;20050;-65
2022/05/06 11:37:30;;;;;;;0.20;0.20;;;20.10;99.90;;;;;;5027371;28;20072;-65
2022/05/06 11:42:41;;;;;;;0.25;0.25;;;20.40;99.90;;;;;;5014525;28;20054;-66
2022/05/06 11:48:03;;;;;;;0.10;0.10;;;21.00;99.90;;;;;;5018080;28;20054;-66
2022/05/06 11:50:28;;;;;;;0.25;0.25;;;21.20;99.90;;;;;;5010827;28;20476;-66
2022/05/06 11:52:56;;;;;;;0.00;0.00;;;21.40;99.90;;;;;;5024048;28;20081;-67
2022/05/06 11:55:22;;;;;;;0.10;0.10;;;21.60;99.90;;;;;;5027536;28;20506;-66
2022/05/06 11:57:49;;;;;;;0.10;0.10;;;21.80;99.90;;;;;;5022721;28;20050;-66
2022/05/06 12:00:15;;;;;;;1.40;0.90;;;21.70;99.90;;;;;;5019156;28;20064;-66
2022/05/06 12:02:51;;;;;;;0.65;0.30;;;22.00;99.90;;;;;;5026583;28;20551;-66
2022/05/06 12:05:17;;;;;;;0.30;0.30;;;22.50;99.90;;;;;;5015105;28;20457;-66
2022/05/06 12:07:45;;;;;;;0.28;0.28;;;22.60;99.90;;;;;;5022322;28;20259;-66
2022/05/06 12:10:26;;;;;;;0.22;0.22;;;22.50;99.90;;;;;;5016572;28;20625;-66
2022/05/06 12:12:55;;;;;;;0.03;0.03;;;22.60;99.90;;;;;;5021055;28;20041;-66
2022/05/06 12:15:27;;;;;;;0.17;0.17;;;22.70;99.90;;;;;;5012102;28;20083;-66
2022/05/06 12:18:01;;;;;;;0.32;0.32;;;23.00;99.90;;;;;;5021187;28;20081;-68
2022/05/06 12:20:41;;;;;;;0.20;0.20;;;22.70;99.90;;;;;;5021536;28;20083;-69
2022/05/06 12:23:08;;;;;;;0.57;0.57;;;22.60;99.90;;;;;;5027079;28;20049;-69
2022/05/06 12:25:36;;;;;;;0.17;0.17;;;22.80;99.90;;;;;;5028728;28;20056;-68
2022/05/06 12:28:13;;;;;;;0.30;0.30;;;23.10;99.80;;;;;;5018165;28;20046;-68
2022/05/06 12:30:38;;;;;;;1.13;0.70;;;23.10;99.80;;;;;;5018938;28;20042;-69
2022/05/06 12:33:10;;;;;;;0.10;0.10;;;23.00;99.90;;;;;;5022237;28;20091;-69
2022/05/06 12:35:55;;;;;;;0.28;0.20;;;23.50;99.90;;;;;;5018497;28;20041;-69
2022/05/06 12:38:26;;;;;;;0.00;0.00;;;23.70;99.50;;;;;;5020179;28;20051;-69
2022/05/06 12:40:53;;;;;;;0.10;0.10;;;23.80;97.70;;;;;;5022399;28;20046;-69
2022/05/06 12:43:26;;;;;;;0.43;0.43;;;23.90;97.80;;;;;;5007750;28;20088;-69
2022/05/06 12:45:59;;;;;;;0.10;0.10;;;23.70;99.20;;;;;;5013958;28;20045;-69
2022/05/06 12:51:09;;;;;;;0.00;0.00;;;23.50;98.60;;;;;;5026854;28;20048;-69
2022/05/06 12:53:35;;;;;;;0.00;0.00;;;24.00;98.50;;;;;;5018226;28;20062;-69
2022/05/06 12:56:05;;;;;;;0.43;0.32;;;23.90;97.20;;;;;;5015772;28;20046;-69
2022/05/06 12:58:31;;;;;;;0.05;0.05;;;24.20;97.70;;;;;;5019492;28;20142;-70
2022/05/06 13:00:57;;;;;;;0.50;0.50;;;24.30;96.90;;;;;;5024864;28;20056;-70
2022/05/06 13:03:23;;;;;;;0.03;0.03;;;24.30;97.80;;;;;;5012700;28;20107;-69
2022/05/06 13:05:50;;;;;;;0.00;0.00;;;24.10;97.10;;;;;;5019794;28;20046;-69
2022/05/06 13:08:16;;;;;;;0.70;0.15;;;24.30;97.70;;;;;;5017366;28;20037;-69
2022/05/06 13:10:42;;;;;;;0.30;0.30;;;24.30;97.80;;;;;;5028224;28;20103;-69
2022/05/06 13:13:08;;;;;;;0.47;0.15;;;24.40;96.80;;;;;;5022873;28;20038;-69
2022/05/06 13:15:33;;;;;;;0.45;0.45;;;24.20;96.50;;;;;;5014204;28;20049;-70
2022/05/06 13:17:59;;;;;;;0.10;0.10;;;24.40;96.80;;;;;;5025854;28;20052;-69
2022/05/06 13:20:24;;;;;;;0.85;0.50;;;24.50;96.20;;;;;;5018462;28;20054;-69
2022/05/06 13:22:50;;;;;;;0.25;0.22;;;24.30;95.90;;;;;;5022702;28;20041;-69
2022/05/06 13:25:17;;;;;;;0.10;0.03;;;23.70;96.30;;;;;;5026755;28;20056;-70
2022/05/06 13:27:43;;;;;;;0.00;0.00;;;24.00;97.10;;;;;;5027779;28;20455;-69